Time;durP1;ratioP1;P1;durP2;ratioP2;P2;SDS_P1;SDS_P2;PMS_P1;PMS_P2;Temp;Humidity;BMP_temperature;BMP_pressure;BME280_temperature;BME280_humidity;BME280_pressure;Samples;Min_cycle;Max_cycle;Signal;HPM_P1;HPM_P2
2022/12/15 00:40:10;;;;;;;55.70;20.83;;;-7.40;99.90;;;;;;4179970;28;20273;-77
2022/12/15 00:42:13;;;;;;;53.60;21.15;;;-7.40;99.90;;;;;;4179729;28;20210;-77
2022/12/15 00:44:15;;;;;;;56.17;21.45;;;-7.50;99.90;;;;;;4176811;28;20235;-77
2022/12/15 00:48:35;;;;;;;55.75;21.88;;;-7.50;99.90;;;;;;4179083;28;20726;-76
2022/12/15 00:50:54;;;;;;;59.43;22.00;;;-7.50;99.90;;;;;;4178185;28;20210;-77
2022/12/15 01:20:58;;;;;;;53.50;19.05;;;-7.60;99.90;;;;;;4171826;28;20199;-77
2022/12/15 01:23:00;;;;;;;51.55;19.02;;;-7.60;99.90;;;;;;4177837;28;20614;-76
2022/12/15 01:25:02;;;;;;;55.88;20.50;;;-7.70;99.90;;;;;;4176031;28;20210;-77
2022/12/15 01:27:04;;;;;;;48.40;18.65;;;-7.70;99.90;;;;;;4167448;28;20232;-76
2022/12/15 01:29:07;;;;;;;56.33;19.65;;;-7.70;99.90;;;;;;4178285;28;20207;-77
2022/12/15 01:31:11;;;;;;;49.97;19.67;;;-7.70;99.90;;;;;;4177680;28;20758;-77
2022/12/15 01:33:13;;;;;;;48.58;19.05;;;-7.70;99.90;;;;;;4179268;28;20731;-76
2022/12/15 01:35:16;;;;;;;48.10;18.40;;;-7.70;99.90;;;;;;4179150;28;20199;-77
2022/12/15 01:37:18;;;;;;;53.03;19.98;;;-7.70;99.90;;;;;;4175571;28;20206;-76
2022/12/15 01:39:20;;;;;;;53.72;19.90;;;-7.70;99.90;;;;;;4179455;28;20213;-77
2022/12/15 01:41:21;;;;;;;46.00;17.80;;;-7.80;99.90;;;;;;4178886;28;20301;-77
2022/12/15 01:43:25;;;;;;;44.15;17.80;;;-7.80;99.90;;;;;;4170013;28;20199;-76
2022/12/15 01:45:54;;;;;;;57.10;19.50;;;-7.80;99.90;;;;;;4179418;28;20330;-78
2022/12/15 01:48:00;;;;;;;44.60;18.30;;;-7.80;99.90;;;;;;4179417;28;20217;-76
2022/12/15 01:50:02;;;;;;;50.67;18.33;;;-7.80;99.90;;;;;;4179508;28;20634;-77
2022/12/15 01:52:07;;;;;;;55.58;19.30;;;-7.80;99.90;;;;;;4178381;28;20238;-76
2022/12/15 01:54:13;;;;;;;57.45;18.50;;;-7.80;99.90;;;;;;4177499;28;20260;-77
2022/12/15 01:56:16;;;;;;;46.90;17.63;;;-7.80;99.90;;;;;;4177828;28;20323;-77
2022/12/15 01:58:20;;;;;;;45.40;17.67;;;-7.90;99.90;;;;;;4178396;28;20202;-77
2022/12/15 02:00:22;;;;;;;49.95;18.13;;;-7.90;99.90;;;;;;4178305;28;20313;-77
2022/12/15 02:02:28;;;;;;;44.17;17.08;;;-8.00;99.90;;;;;;4177760;28;20221;-76
2022/12/15 02:04:31;;;;;;;48.80;18.08;;;-8.00;99.90;;;;;;4179860;28;20281;-76
2022/12/15 02:06:34;;;;;;;50.33;18.90;;;-8.00;99.90;;;;;;4178987;28;20234;-77
2022/12/15 02:08:37;;;;;;;41.65;16.85;;;-8.00;99.90;;;;;;4179369;28;20238;-76
2022/12/15 02:10:59;;;;;;;42.75;17.33;;;-8.00;99.90;;;;;;4179510;28;20318;-77
2022/12/15 02:13:08;;;;;;;52.97;17.85;;;-8.00;99.90;;;;;;4179094;28;20221;-76
2022/12/15 02:15:19;;;;;;;48.97;17.80;;;-8.00;99.90;;;;;;4178978;28;20230;-77
2022/12/15 02:17:33;;;;;;;49.13;18.30;;;-8.00;99.90;;;;;;4177278;28;20220;-77
2022/12/15 02:20:04;;;;;;;44.72;16.75;;;-8.00;99.90;;;;;;4179314;28;20203;-76
2022/12/15 02:22:23;;;;;;;46.38;15.90;;;-8.00;99.90;;;;;;4158359;28;20660;-77
2022/12/15 02:24:51;;;;;;;42.40;16.33;;;-8.00;99.90;;;;;;4166108;28;20282;-76
2022/12/15 02:27:20;;;;;;;49.92;17.05;;;-7.90;99.90;;;;;;4178616;28;20239;-76
2022/12/15 02:29:51;;;;;;;45.58;16.05;;;-8.10;99.90;;;;;;4162898;28;20211;-76
2022/12/15 02:31:59;;;;;;;42.67;16.42;;;-8.10;99.90;;;;;;4162962;28;20211;-77
2022/12/15 02:34:11;;;;;;;51.58;16.13;;;-8.10;99.90;;;;;;4171434;28;20214;-77
2022/12/15 02:36:20;;;;;;;48.58;17.35;;;-8.10;99.90;;;;;;4178461;28;20245;-77
2022/12/15 02:38:30;;;;;;;42.10;16.45;;;-7.70;99.90;;;;;;4171359;28;20206;-76
2022/12/15 02:40:32;;;;;;;45.95;16.70;;;-8.30;99.90;;;;;;4179161;28;20215;-76
2022/12/15 02:42:36;;;;;;;41.95;16.38;;;-8.10;99.90;;;;;;4178853;28;20244;-76
2022/12/15 02:44:43;;;;;;;50.55;17.60;;;-8.10;99.90;;;;;;4179213;28;20274;-76
2022/12/15 02:47:03;;;;;;;48.00;16.27;;;-8.10;99.90;;;;;;4179559;28;20237;-77
2022/12/15 02:49:13;;;;;;;52.63;16.85;;;-8.10;99.90;;;;;;4182224;28;20233;-76
2022/12/15 02:51:27;;;;;;;46.13;15.25;;;-8.20;99.90;;;;;;4182070;28;20206;-76
2022/12/15 02:53:43;;;;;;;47.20;15.52;;;-8.20;99.90;;;;;;4170694;28;20303;-76
2022/12/15 02:55:57;;;;;;;47.33;16.55;;;-8.20;99.90;;;;;;4167080;28;20231;-76
2022/12/15 02:58:02;;;;;;;47.97;16.65;;;-8.20;99.90;;;;;;4180864;28;20213;-76
2022/12/15 03:00:08;;;;;;;44.00;15.50;;;-8.20;99.90;;;;;;4164897;28;20207;-77
2022/12/15 03:02:14;;;;;;;46.75;17.10;;;-8.20;99.90;;;;;;4164359;28;20211;-76
2022/12/15 03:04:16;;;;;;;45.20;16.20;;;-7.30;99.90;;;;;;4164053;28;20206;-77
2022/12/15 03:06:19;;;;;;;50.53;16.90;;;-8.20;99.90;;;;;;4163840;28;20680;-76
2022/12/15 03:08:22;;;;;;;44.42;16.40;;;-8.20;99.90;;;;;;4166241;28;20306;-77
2022/12/15 03:10:25;;;;;;;40.33;15.70;;;-8.20;99.90;;;;;;4180700;28;20625;-77
2022/12/15 03:12:27;;;;;;;49.40;16.35;;;-8.10;99.90;;;;;;4181502;28;20264;-76
2022/12/15 03:14:29;;;;;;;43.90;16.20;;;-8.20;99.90;;;;;;4180337;28;20217;-76
2022/12/15 03:16:31;;;;;;;43.90;16.45;;;-8.20;99.90;;;;;;4170393;28;20223;-78
2022/12/15 03:18:34;;;;;;;45.28;16.15;;;-8.20;99.90;;;;;;4165365;28;20238;-77
2022/12/15 03:20:36;;;;;;;39.47;15.80;;;-8.20;99.90;;;;;;4180494;28;20253;-77
2022/12/15 03:22:38;;;;;;;41.72;15.98;;;-7.90;99.90;;;;;;4174868;28;20230;-77
2022/12/15 03:24:40;;;;;;;46.35;16.50;;;-8.20;99.90;;;;;;4181746;28;20210;-76
2022/12/15 03:29:19;;;;;;;47.75;16.60;;;-8.30;99.90;;;;;;4173175;28;20618;-77
2022/12/15 03:32:20;;;;;;;38.88;15.25;;;-8.30;99.90;;;;;;4179719;28;20252;-78
2022/12/15 03:37:29;;;;;;;43.67;14.30;;;-7.80;99.90;;;;;;4035817;28;20208;-78
2022/12/15 03:39:31;;;;;;;41.08;15.77;;;-8.20;99.90;;;;;;4167827;28;20215;-78
2022/12/15 03:41:33;;;;;;;43.03;15.68;;;-8.30;99.90;;;;;;4181156;28;20216;-78
2022/12/15 03:43:38;;;;;;;43.88;16.00;;;-8.30;99.90;;;;;;4179525;28;20218;-78
2022/12/15 03:45:40;;;;;;;43.00;16.10;;;-8.30;99.90;;;;;;4179385;28;20258;-78
2022/12/15 03:47:42;;;;;;;41.63;15.98;;;-8.30;99.90;;;;;;4179515;28;20238;-78
2022/12/15 03:49:44;;;;;;;40.60;15.18;;;-8.30;99.90;;;;;;4180905;28;20599;-78
2022/12/15 03:51:46;;;;;;;44.55;16.75;;;-8.30;99.90;;;;;;4180952;28;20210;-78
2022/12/15 03:53:50;;;;;;;42.42;15.13;;;-8.30;99.90;;;;;;4179452;28;20293;-78
2022/12/15 03:55:52;;;;;;;39.05;14.95;;;-8.30;99.90;;;;;;4181018;28;20226;-77
2022/12/15 03:57:54;;;;;;;45.45;16.48;;;-8.30;99.90;;;;;;4178953;28;20692;-78
2022/12/15 03:59:59;;;;;;;42.50;16.45;;;-8.30;99.90;;;;;;4177050;28;20207;-77
2022/12/15 04:02:01;;;;;;;43.30;16.30;;;-7.90;99.90;;;;;;4179750;28;20202;-77
2022/12/15 05:32:31;;;;;;;39.00;13.98;;;-8.30;99.90;;;;;;4176020;28;20202;-78
2022/12/15 05:34:37;;;;;;;34.33;13.57;;;-8.30;99.90;;;;;;4179784;28;20202;-78
2022/12/15 05:36:39;;;;;;;38.63;14.05;;;-8.30;99.90;;;;;;4172215;28;20313;-78
2022/12/15 05:38:41;;;;;;;41.20;13.55;;;-8.30;99.90;;;;;;4179674;28;20198;-77
2022/12/15 05:40:43;;;;;;;37.70;14.02;;;-8.30;99.90;;;;;;4161919;28;20219;-77
2022/12/15 05:42:45;;;;;;;44.15;14.77;;;-8.20;99.90;;;;;;4179555;28;20229;-78
2022/12/15 05:44:47;;;;;;;38.17;13.57;;;-8.20;99.90;;;;;;4179703;28;20213;-77
2022/12/15 05:46:49;;;;;;;34.60;13.38;;;-8.20;99.90;;;;;;4179307;28;20237;-77
2022/12/15 05:48:51;;;;;;;28.58;11.65;;;-8.20;99.90;;;;;;4178045;28;20210;-77
2022/12/15 05:50:54;;;;;;;32.00;12.30;;;-8.30;99.90;;;;;;4171064;28;20218;-78
2022/12/15 05:52:58;;;;;;;36.30;12.73;;;-8.30;99.90;;;;;;4179194;28;20620;-78
2022/12/15 05:55:00;;;;;;;37.70;13.65;;;-8.20;99.90;;;;;;4168170;28;20207;-78
2022/12/15 05:57:02;;;;;;;36.63;13.63;;;-8.30;99.90;;;;;;4158386;28;20722;-78
2022/12/15 05:59:04;;;;;;;36.42;12.65;;;-8.30;99.90;;;;;;4161251;28;20214;-78
2022/12/15 06:01:08;;;;;;;33.97;13.45;;;-8.40;99.90;;;;;;4179281;28;20257;-78
2022/12/15 06:03:13;;;;;;;37.60;13.30;;;-8.40;99.90;;;;;;4152666;28;20203;-78
2022/12/15 06:05:15;;;;;;;35.00;13.65;;;-8.40;99.90;;;;;;4161474;28;20242;-78
2022/12/15 06:07:19;;;;;;;38.42;14.10;;;-8.30;99.90;;;;;;4178985;28;20218;-78
2022/12/15 06:09:21;;;;;;;40.25;13.95;;;-8.30;99.90;;;;;;4161102;28;20207;-79
2022/12/15 06:11:23;;;;;;;39.92;14.45;;;-8.30;99.90;;;;;;4179088;28;20253;-78
2022/12/15 06:13:30;;;;;;;40.58;14.95;;;-8.30;99.90;;;;;;4178878;28;20206;-77
2022/12/15 06:15:34;;;;;;;41.65;14.80;;;-8.20;99.90;;;;;;4155211;28;20211;-78
2022/12/15 06:17:37;;;;;;;38.28;13.95;;;-7.00;99.90;;;;;;4170489;28;20207;-78
2022/12/15 06:19:39;;;;;;;40.40;13.57;;;-8.00;99.90;;;;;;4160658;28;20231;-78
2022/12/15 06:22:05;;;;;;;32.92;12.52;;;-8.30;99.90;;;;;;4154642;28;20290;-78
2022/12/15 06:24:10;;;;;;;34.50;12.32;;;-8.30;99.90;;;;;;4168609;28;20211;-79
2022/12/15 06:26:14;;;;;;;39.15;13.02;;;-8.30;99.90;;;;;;4164870;28;20235;-78
2022/12/15 06:28:22;;;;;;;32.67;12.75;;;-8.30;99.90;;;;;;4180635;28;20306;-78
2022/12/15 06:30:24;;;;;;;31.95;12.75;;;-8.40;99.90;;;;;;4166569;28;20268;-77
2022/12/15 06:32:26;;;;;;;36.83;13.95;;;-8.40;99.90;;;;;;4178725;28;20261;-78
2022/12/15 06:34:30;;;;;;;34.08;12.45;;;-8.40;99.90;;;;;;4158254;28;20223;-78
2022/12/15 06:36:33;;;;;;;34.30;12.52;;;-8.40;99.90;;;;;;4161154;28;20223;-79
2022/12/15 06:38:35;;;;;;;37.58;13.25;;;-8.30;99.90;;;;;;4156034;28;20204;-80
2022/12/15 06:40:38;;;;;;;38.88;13.77;;;-8.50;99.90;;;;;;4175438;28;20231;-82
2022/12/15 06:42:40;;;;;;;38.35;13.40;;;-8.40;99.90;;;;;;4170445;28;20237;-78
2022/12/15 06:44:42;;;;;;;35.58;12.82;;;-8.40;99.90;;;;;;4151577;28;20281;-80
2022/12/15 06:46:45;;;;;;;39.78;13.98;;;-8.40;99.90;;;;;;4172261;28;20295;-78
2022/12/15 06:48:48;;;;;;;34.90;13.02;;;-8.40;99.90;;;;;;4174445;28;20294;-78
2022/12/15 06:50:51;;;;;;;35.45;13.63;;;-8.40;99.90;;;;;;4175298;28;20657;-80
2022/12/15 06:52:53;;;;;;;38.80;13.25;;;-8.40;99.90;;;;;;4175710;28;20226;-78
2022/12/15 06:54:57;;;;;;;32.35;12.45;;;-8.50;99.90;;;;;;4157519;28;20207;-79
2022/12/15 06:57:00;;;;;;;37.15;13.57;;;-8.50;99.90;;;;;;4161856;28;20744;-80
2022/12/15 06:59:04;;;;;;;31.20;12.40;;;-8.50;99.90;;;;;;4161842;28;20609;-79
2022/12/15 07:01:10;;;;;;;32.83;12.13;;;-8.50;99.90;;;;;;4156260;28;20234;-78
2022/12/15 07:03:15;;;;;;;34.75;12.60;;;-8.50;99.90;;;;;;4154591;28;20250;-78
2022/12/15 07:05:17;;;;;;;34.42;13.40;;;-8.50;99.90;;;;;;4147834;28;20207;-79
2022/12/15 07:07:19;;;;;;;43.85;16.65;;;-8.50;99.90;;;;;;4150646;28;20223;-78
2022/12/15 07:09:21;;;;;;;49.85;17.90;;;-8.50;99.90;;;;;;4166250;28;20213;-79
2022/12/15 07:11:23;;;;;;;46.45;16.00;;;-8.50;99.90;;;;;;4168675;28;20842;-78
2022/12/15 07:13:27;;;;;;;42.33;14.25;;;-8.40;99.90;;;;;;4171968;28;20215;-78
2022/12/15 07:15:31;;;;;;;38.50;13.70;;;-8.40;99.90;;;;;;4175711;28;20585;-78
2022/12/15 07:17:37;;;;;;;41.80;14.52;;;-8.40;99.90;;;;;;4158356;28;20645;-79
2022/12/15 07:19:39;;;;;;;43.15;14.77;;;-8.10;99.90;;;;;;4164086;28;20343;-78
2022/12/15 07:21:41;;;;;;;37.65;13.32;;;-8.40;99.90;;;;;;4163753;28;20214;-80
2022/12/15 07:23:43;;;;;;;37.05;14.05;;;-7.80;99.90;;;;;;4153935;28;20203;-78
2022/12/15 07:25:45;;;;;;;35.78;13.50;;;-8.30;99.90;;;;;;4158392;28;20227;-77
2022/12/15 07:27:48;;;;;;;36.22;13.38;;;-8.20;99.90;;;;;;4166882;28;20242;-79
2022/12/15 07:29:52;;;;;;;37.47;13.45;;;-8.20;99.90;;;;;;4154619;28;20222;-79
2022/12/15 07:31:54;;;;;;;39.78;14.73;;;-8.20;99.90;;;;;;4168579;28;21583;-78
2022/12/15 07:33:57;;;;;;;41.53;14.32;;;-8.20;99.90;;;;;;4167913;28;20208;-79
2022/12/15 07:36:00;;;;;;;36.95;13.07;;;-8.10;99.90;;;;;;4152246;28;20342;-77
2022/12/15 07:38:06;;;;;;;39.45;14.02;;;-8.10;99.90;;;;;;4150647;28;20262;-78
2022/12/15 07:40:09;;;;;;;36.47;12.98;;;-8.10;99.90;;;;;;4165085;28;20652;-79
2022/12/15 07:42:11;;;;;;;36.38;13.15;;;-8.10;99.90;;;;;;4167654;28;20221;-77
2022/12/15 07:44:14;;;;;;;32.20;12.77;;;-8.10;99.90;;;;;;4153408;28;20248;-77
2022/12/15 07:46:17;;;;;;;28.35;12.18;;;-8.10;99.90;;;;;;4168091;28;20230;-77
2022/12/15 07:48:19;;;;;;;43.78;14.15;;;-7.20;99.90;;;;;;4171007;28;20218;-77
2022/12/15 07:50:21;;;;;;;31.85;13.48;;;-8.00;99.90;;;;;;4154252;28;20204;-79
2022/12/15 07:52:24;;;;;;;40.83;13.93;;;-8.00;99.90;;;;;;4170887;28;20210;-78
2022/12/15 07:54:26;;;;;;;33.20;12.82;;;-8.00;99.90;;;;;;4148293;28;20224;-78
2022/12/15 07:56:28;;;;;;;39.20;14.25;;;-7.80;99.90;;;;;;4158299;28;20228;-77
2022/12/15 08:01:00;;;;;;;36.72;13.68;;;-8.00;99.90;;;;;;4181456;28;20233;-77
2022/12/15 08:03:04;;;;;;;32.40;13.13;;;-8.00;99.90;;;;;;4164005;28;20231;-77
2022/12/15 08:05:07;;;;;;;33.40;12.27;;;-7.80;99.90;;;;;;4174435;28;20950;-77
2022/12/15 08:07:10;;;;;;;34.13;12.60;;;-7.90;99.90;;;;;;4155021;28;20611;-76
2022/12/15 08:09:12;;;;;;;34.97;13.05;;;-7.90;99.90;;;;;;4154525;28;21191;-77
2022/12/15 08:11:16;;;;;;;38.00;13.65;;;-7.90;99.90;;;;;;4172615;28;20656;-77
2022/12/15 08:13:18;;;;;;;33.83;12.82;;;-7.80;99.90;;;;;;4160190;28;20211;-76
2022/12/15 08:15:20;;;;;;;39.78;13.80;;;-7.80;99.90;;;;;;4157506;28;20208;-77
2022/12/15 08:17:22;;;;;;;39.47;13.63;;;-7.80;99.90;;;;;;4161846;28;20246;-76
2022/12/15 08:19:25;;;;;;;37.17;13.23;;;-7.90;99.90;;;;;;4156326;28;20216;-76
2022/12/15 08:21:27;;;;;;;38.40;14.70;;;-7.70;99.90;;;;;;4179944;28;20723;-76
2022/12/15 08:23:31;;;;;;;38.72;13.57;;;-7.70;99.90;;;;;;4154137;28;20249;-76
2022/12/15 08:25:33;;;;;;;40.88;14.43;;;-7.70;99.90;;;;;;4165453;28;20206;-77
2022/12/15 08:27:35;;;;;;;39.03;14.50;;;-7.40;99.90;;;;;;4174094;28;20222;-76
2022/12/15 08:29:40;;;;;;;46.65;16.23;;;-7.60;99.90;;;;;;4155567;28;20207;-76
2022/12/15 08:31:42;;;;;;;47.85;14.55;;;-7.60;99.90;;;;;;4172674;28;20254;-76
2022/12/15 08:33:46;;;;;;;40.42;14.95;;;-7.50;99.90;;;;;;4173302;28;20234;-76
2022/12/15 08:35:49;;;;;;;43.97;16.02;;;-7.50;99.90;;;;;;4155752;28;20744;-77
2022/12/15 08:37:51;;;;;;;42.80;15.43;;;-7.50;99.90;;;;;;4172686;28;20195;-77
2022/12/15 08:39:54;;;;;;;37.97;15.40;;;-7.50;99.90;;;;;;4173232;28;20222;-77
2022/12/15 08:41:56;;;;;;;46.65;15.63;;;-7.40;99.90;;;;;;4171527;28;20564;-77
2022/12/15 08:43:59;;;;;;;45.33;15.85;;;-7.40;99.90;;;;;;4169064;28;20206;-76
2022/12/15 08:46:04;;;;;;;39.60;14.48;;;-7.40;99.90;;;;;;4152937;28;20239;-77
2022/12/15 08:48:06;;;;;;;43.42;15.00;;;-7.30;99.90;;;;;;4176680;28;20231;-77
2022/12/15 08:50:09;;;;;;;43.60;16.17;;;-7.30;99.90;;;;;;4172967;28;20364;-77
2022/12/15 08:52:12;;;;;;;42.35;14.57;;;-7.30;99.90;;;;;;4154465;28;20598;-77
2022/12/15 08:54:14;;;;;;;46.97;14.65;;;-7.30;99.90;;;;;;4158765;28;20223;-77
2022/12/15 08:56:18;;;;;;;44.30;15.57;;;-7.20;99.90;;;;;;4177876;28;20218;-77
2022/12/15 08:58:20;;;;;;;41.30;14.95;;;-7.20;99.90;;;;;;4169075;28;20241;-77
2022/12/15 09:00:22;;;;;;;37.05;13.95;;;-6.60;99.90;;;;;;4159087;28;20642;-77
2022/12/15 09:02:24;;;;;;;38.22;14.70;;;-7.10;99.90;;;;;;4147996;28;20260;-77
2022/12/15 09:04:26;;;;;;;38.50;14.65;;;-7.10;99.90;;;;;;4170770;28;20213;-77
2022/12/15 09:06:32;;;;;;;42.08;15.63;;;-7.00;99.90;;;;;;4168182;28;20592;-77
2022/12/15 09:08:35;;;;;;;41.70;14.32;;;-7.00;99.90;;;;;;4154968;28;20223;-77
2022/12/15 09:10:40;;;;;;;39.35;15.15;;;-6.90;99.90;;;;;;4167701;28;20203;-77
2022/12/15 09:12:42;;;;;;;39.17;14.68;;;-6.90;99.90;;;;;;4145782;28;20270;-78
2022/12/15 09:14:44;;;;;;;35.90;13.93;;;-6.80;99.90;;;;;;4176790;28;20734;-78
2022/12/15 09:16:46;;;;;;;42.35;16.30;;;-6.80;99.90;;;;;;4161197;28;20237;-77
2022/12/15 09:18:51;;;;;;;44.13;16.00;;;-6.70;99.90;;;;;;4155017;28;20205;-77
2022/12/15 09:20:54;;;;;;;39.63;13.90;;;-6.70;99.90;;;;;;4171249;28;20190;-77
2022/12/15 09:22:57;;;;;;;36.25;14.38;;;-6.60;99.90;;;;;;4161196;28;20712;-77
2022/12/15 09:25:01;;;;;;;46.83;16.02;;;-6.60;99.90;;;;;;4172044;28;20244;-78
2022/12/15 09:27:04;;;;;;;42.33;16.13;;;-6.50;99.90;;;;;;4164044;28;20223;-77
2022/12/15 09:29:06;;;;;;;39.35;15.15;;;-6.50;99.90;;;;;;4144852;28;20238;-79
2022/12/15 09:31:09;;;;;;;41.35;16.05;;;-6.50;99.90;;;;;;4160180;28;20633;-78
2022/12/15 09:33:11;;;;;;;39.88;16.08;;;-6.30;99.90;;;;;;4160862;28;20212;-77
2022/12/15 09:35:16;;;;;;;39.60;16.95;;;-6.40;99.90;;;;;;4160695;28;20245;-77
2022/12/15 09:37:18;;;;;;;44.50;15.45;;;-6.30;99.90;;;;;;4160557;28;20649;-78
2022/12/15 09:39:20;;;;;;;35.75;15.35;;;-6.30;99.90;;;;;;4162146;28;20215;-77
2022/12/15 09:41:26;;;;;;;36.17;14.85;;;-6.20;99.90;;;;;;4162130;28;20203;-78
2022/12/15 09:43:28;;;;;;;40.35;15.63;;;-6.10;99.90;;;;;;4179084;28;20230;-77
2022/12/15 09:45:39;;;;;;;38.03;15.32;;;-6.00;99.90;;;;;;4178419;28;20254;-78
2022/12/15 09:47:49;;;;;;;35.90;15.50;;;-5.30;99.90;;;;;;4172187;28;20296;-77
2022/12/15 09:49:55;;;;;;;40.28;14.73;;;-5.80;99.90;;;;;;4179442;28;20207;-77
2022/12/15 09:52:03;;;;;;;38.90;15.35;;;-5.70;99.90;;;;;;4179027;28;20207;-77
2022/12/15 09:54:06;;;;;;;33.72;14.68;;;-5.60;99.90;;;;;;4175737;28;20225;-78
2022/12/15 09:56:18;;;;;;;34.75;14.45;;;-5.50;99.90;;;;;;4179404;28;20285;-78
2022/12/15 09:58:35;;;;;;;41.38;16.60;;;-5.40;99.90;;;;;;4181197;28;20574;-77
2022/12/15 10:00:43;;;;;;;37.90;15.57;;;-5.30;99.90;;;;;;4182224;28;20215;-77
2022/12/15 10:03:23;;;;;;;38.97;16.02;;;-5.20;99.90;;;;;;4182327;28;20214;-78
2022/12/15 10:05:38;;;;;;;36.42;15.45;;;-5.30;99.90;;;;;;4167468;28;20208;-78
2022/12/15 10:07:45;;;;;;;38.95;15.93;;;-5.10;99.90;;;;;;4181906;28;20218;-77
2022/12/15 10:09:47;;;;;;;39.65;14.98;;;-5.00;99.90;;;;;;4180642;28;20305;-77
2022/12/15 10:11:54;;;;;;;40.65;15.15;;;-5.00;99.90;;;;;;4197541;28;20204;-78
2022/12/15 10:14:06;;;;;;;35.83;14.40;;;-5.00;99.90;;;;;;4181655;28;20239;-78
2022/12/15 10:16:18;;;;;;;36.72;15.77;;;-4.90;99.90;;;;;;4169705;28;20222;-77
2022/12/15 10:18:24;;;;;;;38.97;15.52;;;-4.90;99.90;;;;;;4180558;28;20210;-77
2022/12/15 10:20:28;;;;;;;40.97;16.50;;;-4.80;99.90;;;;;;4181469;28;20839;-77
2022/12/15 10:22:33;;;;;;;38.65;15.45;;;-4.70;99.90;;;;;;4180279;28;20210;-77
2022/12/15 10:24:36;;;;;;;38.08;14.23;;;-4.60;99.90;;;;;;4164237;28;20277;-78
2022/12/15 10:26:41;;;;;;;36.53;16.15;;;-4.50;99.90;;;;;;4163829;28;20230;-77
2022/12/15 10:28:57;;;;;;;37.45;15.23;;;-4.40;99.90;;;;;;4164143;28;20242;-78
2022/12/15 10:31:06;;;;;;;42.00;16.27;;;-4.30;99.90;;;;;;4159318;28;20199;-76
2022/12/15 10:33:18;;;;;;;41.05;15.48;;;-4.20;99.90;;;;;;4176009;28;20210;-78
2022/12/15 10:35:22;;;;;;;38.10;15.23;;;-4.10;99.90;;;;;;4173935;28;20301;-78
2022/12/15 10:37:24;;;;;;;36.70;14.95;;;-4.00;99.90;;;;;;4155091;28;20239;-76
2022/12/15 10:39:38;;;;;;;37.40;15.30;;;-3.90;99.90;;;;;;4162572;28;20209;-79
2022/12/15 10:41:42;;;;;;;33.58;14.98;;;-3.80;99.90;;;;;;4155738;28;20214;-77
2022/12/15 10:43:45;;;;;;;32.47;13.65;;;-3.70;99.90;;;;;;4177150;28;20703;-78
2022/12/15 10:45:49;;;;;;;30.67;14.40;;;-3.70;99.90;;;;;;4159270;28;20648;-78
2022/12/15 10:48:01;;;;;;;33.17;14.13;;;-3.60;99.90;;;;;;4180798;28;20257;-77
2022/12/15 10:50:20;;;;;;;39.13;15.70;;;-3.60;99.90;;;;;;4171845;28;20199;-77
2022/12/15 10:52:27;;;;;;;36.17;14.82;;;-3.40;99.90;;;;;;4138400;28;20630;-78
2022/12/15 10:54:35;;;;;;;37.38;15.40;;;-3.40;99.90;;;;;;4161411;28;20245;-78
2022/12/15 10:56:48;;;;;;;32.72;14.65;;;-3.40;99.90;;;;;;4173515;28;20713;-77
2022/12/15 10:58:52;;;;;;;35.13;14.32;;;-3.30;99.90;;;;;;4175732;28;20206;-74
2022/12/15 11:01:07;;;;;;;39.65;16.30;;;-3.30;99.90;;;;;;4178764;28;20261;-77
2022/12/15 11:03:23;;;;;;;36.42;15.77;;;-3.30;99.90;;;;;;4158875;28;20289;-79
2022/12/15 11:05:26;;;;;;;38.83;15.15;;;-3.30;99.90;;;;;;4173263;28;20211;-78
2022/12/15 11:07:37;;;;;;;30.42;13.80;;;-3.20;99.90;;;;;;4162859;28;20208;-76
2022/12/15 11:09:39;;;;;;;36.33;15.43;;;-3.20;99.90;;;;;;4157410;28;20202;-78
2022/12/15 11:14:13;;;;;;;35.95;14.68;;;-3.20;99.90;;;;;;4158679;28;20207;-77
2022/12/15 11:16:16;;;;;;;31.73;14.40;;;-3.10;99.90;;;;;;4174303;28;20221;-77
2022/12/15 11:18:29;;;;;;;32.85;13.93;;;-2.90;99.90;;;;;;4155758;28;20211;-77
2022/12/15 11:20:37;;;;;;;34.38;13.80;;;-3.00;99.90;;;;;;4173019;28;20609;-76
2022/12/15 11:22:44;;;;;;;35.38;14.95;;;-2.90;99.90;;;;;;4155627;28;20245;-77
2022/12/15 11:24:52;;;;;;;35.25;14.77;;;-2.90;99.90;;;;;;4171694;28;20234;-77
2022/12/15 11:26:58;;;;;;;33.20;14.75;;;-2.80;99.90;;;;;;4173910;28;20234;-76
2022/12/15 11:29:05;;;;;;;33.15;15.05;;;-2.70;99.90;;;;;;4175139;28;20669;-76
2022/12/15 11:31:24;;;;;;;32.58;14.30;;;-2.70;99.90;;;;;;4160800;28;20210;-77
2022/12/15 11:33:27;;;;;;;36.08;14.73;;;-2.60;99.90;;;;;;4172059;28;20198;-76
2022/12/15 11:35:49;;;;;;;37.17;15.75;;;-2.50;99.90;;;;;;4180352;28;20202;-78
2022/12/15 11:37:56;;;;;;;35.47;14.85;;;-2.40;99.90;;;;;;4153141;28;20237;-76
2022/12/15 11:40:18;;;;;;;35.30;15.70;;;-2.30;99.90;;;;;;4174863;28;20611;-77
2022/12/15 11:42:28;;;;;;;36.50;14.13;;;-2.20;99.90;;;;;;4177578;28;20206;-77
2022/12/15 11:44:38;;;;;;;32.37;14.17;;;-2.10;99.90;;;;;;4155311;28;20237;-77
2022/12/15 11:46:44;;;;;;;33.72;14.32;;;-1.90;99.90;;;;;;4165137;28;20491;-77
2022/12/15 11:48:59;;;;;;;34.83;14.10;;;-1.80;99.90;;;;;;4157947;28;20227;-79
2022/12/15 11:51:06;;;;;;;34.38;14.65;;;-1.70;99.90;;;;;;4172501;28;20215;-77
2022/12/15 11:53:50;;;;;;;30.40;14.30;;;-1.60;99.90;;;;;;4158058;28;20211;-78
2022/12/15 11:56:03;;;;;;;33.63;13.00;;;-1.40;99.90;;;;;;4159293;28;20594;-77
2022/12/15 11:58:22;;;;;;;29.63;13.40;;;-1.30;99.90;;;;;;4159242;28;20507;-78
2022/12/15 12:00:24;;;;;;;33.53;13.67;;;-1.30;99.90;;;;;;4170162;28;20876;-77
2022/12/15 12:02:40;;;;;;;34.37;14.53;;;-1.20;99.90;;;;;;4167584;28;20554;-77
2022/12/15 12:04:57;;;;;;;28.40;13.67;;;-1.00;99.90;;;;;;4151891;28;20461;-79
2022/12/15 12:07:08;;;;;;;31.10;13.63;;;-0.90;99.90;;;;;;4169975;28;20477;-77
2022/12/15 12:09:27;;;;;;;34.07;13.37;;;-0.80;99.90;;;;;;4153630;28;20477;-78
2022/12/15 12:11:40;;;;;;;32.13;13.47;;;-0.70;99.90;;;;;;4167722;28;20446;-77
2022/12/15 12:14:01;;;;;;;31.77;13.93;;;-0.60;99.90;;;;;;4152182;28;20496;-76
2022/12/15 12:16:13;;;;;;;35.70;13.83;;;-0.50;99.90;;;;;;4168670;28;20470;-78
2022/12/15 12:18:21;;;;;;;27.27;12.07;;;-0.40;99.90;;;;;;4168809;28;21032;-77
2022/12/15 12:20:29;;;;;;;26.60;12.00;;;-0.30;99.90;;;;;;4169084;28;20794;-77
2022/12/15 12:22:40;;;;;;;28.07;12.73;;;-0.30;99.90;;;;;;4171572;28;20562;-80
2022/12/15 12:24:48;;;;;;;30.50;13.07;;;-0.20;99.90;;;;;;4152950;28;20457;-77
2022/12/15 12:26:58;;;;;;;29.90;13.70;;;-0.20;99.90;;;;;;4173380;28;20468;-78
2022/12/15 12:29:05;;;;;;;30.97;13.23;;;-0.10;99.90;;;;;;4152224;28;20510;-76
2022/12/15 12:31:19;;;;;;;29.60;13.23;;;0.00;99.90;;;;;;4170399;28;20466;-76
2022/12/15 12:33:32;;;;;;;29.20;13.03;;;0.00;99.90;;;;;;4167986;28;20984;-76
2022/12/15 12:35:40;;;;;;;32.10;14.00;;;0.40;99.90;;;;;;4166953;28;20530;-75
2022/12/15 12:37:44;;;;;;;29.63;13.23;;;0.20;99.90;;;;;;4170368;28;20464;-75
2022/12/15 12:39:47;;;;;;;29.40;13.53;;;0.20;99.90;;;;;;4172453;28;20453;-77
2022/12/15 12:41:56;;;;;;;31.10;14.33;;;0.20;99.90;;;;;;4151475;28;20474;-76
2022/12/15 12:44:04;;;;;;;29.90;12.43;;;0.20;99.90;;;;;;4172226;28;20509;-75
2022/12/15 12:46:13;;;;;;;32.27;13.13;;;0.30;99.90;;;;;;4165615;28;20506;-75
2022/12/15 12:48:24;;;;;;;27.30;13.07;;;0.30;99.90;;;;;;4161278;28;20503;-77
2022/12/15 12:50:28;;;;;;;30.07;12.97;;;0.40;99.90;;;;;;4149522;28;20448;-76
2022/12/15 12:52:35;;;;;;;27.83;12.53;;;0.40;99.90;;;;;;4171474;28;20452;-76
2022/12/15 12:54:43;;;;;;;28.97;13.13;;;0.50;99.90;;;;;;4151464;28;20442;-76
2022/12/15 12:56:46;;;;;;;33.50;14.50;;;0.60;99.90;;;;;;4170503;28;21010;-76
2022/12/15 12:58:48;;;;;;;26.13;13.07;;;0.70;99.90;;;;;;4157524;28;20491;-78
2022/12/15 13:01:17;;;;;;;28.97;13.37;;;0.70;99.90;;;;;;4169871;28;20464;-76
2022/12/15 13:03:21;;;;;;;30.90;14.33;;;0.70;99.90;;;;;;4156074;28;20464;-76
2022/12/15 13:05:27;;;;;;;31.73;14.40;;;0.80;99.90;;;;;;4173771;28;20966;-76
2022/12/15 13:07:33;;;;;;;28.43;14.00;;;0.80;99.90;;;;;;4169766;28;20456;-76
2022/12/15 13:09:41;;;;;;;28.80;13.93;;;0.80;99.90;;;;;;4174529;28;20475;-79
2022/12/15 13:12:00;;;;;;;33.60;14.40;;;0.90;99.90;;;;;;4149712;28;20521;-77
2022/12/15 13:14:03;;;;;;;30.17;14.67;;;0.90;99.90;;;;;;4154884;28;20482;-78
2022/12/15 13:16:11;;;;;;;32.30;14.57;;;0.90;99.90;;;;;;4153511;28;20519;-79
2022/12/15 13:18:16;;;;;;;33.97;14.70;;;1.00;99.90;;;;;;4155204;28;20461;-75
2022/12/15 13:20:24;;;;;;;30.53;15.13;;;1.60;99.90;;;;;;4153389;28;20520;-76
2022/12/15 13:22:31;;;;;;;34.23;13.83;;;1.00;99.90;;;;;;4166138;28;20443;-77
2022/12/15 13:24:36;;;;;;;30.10;13.93;;;1.00;99.90;;;;;;4157105;28;21243;-77
2022/12/15 13:26:44;;;;;;;33.83;16.00;;;1.00;99.90;;;;;;4170883;28;20475;-76
2022/12/15 13:28:56;;;;;;;36.67;14.30;;;1.10;99.90;;;;;;4169409;28;20540;-77
2022/12/15 13:31:32;;;;;;;31.77;14.77;;;1.10;99.90;;;;;;4170868;28;20450;-77